Time;durP1;ratioP1;P1;durP2;ratioP2;P2;SDS_P1;SDS_P2;PMS_P1;PMS_P2;Temp;Humidity;BMP_temperature;BMP_pressure;BME280_temperature;BME280_humidity;BME280_pressure;Samples;Min_cycle;Max_cycle;Signal;HPM_P1;HPM_P2
2022/09/08 00:01:10;;;;;;;;;;;;;;;;;;5137904;27;19927;-84
2022/09/08 00:03:35;;;;;;;;;;;;;;;;;;5119499;27;19924;-85
2022/09/08 00:06:02;;;;;;;;;;;;;;;;;;5119443;27;19916;-84
2022/09/08 00:08:28;;;;;;;;;;;;;;;;;;5119593;27;20322;-84
2022/09/08 00:10:54;;;;;;;;;;;;;;;;;;5137580;27;20015;-85
2022/09/08 00:13:19;;;;;;;;;;;;;;;;;;5119519;27;20011;-85
2022/09/08 00:15:45;;;;;;;;;;;;;;;;;;5137678;27;20002;-84
2022/09/08 00:18:10;;;;;;;;;;;;;;;;;;5137922;27;20328;-85
2022/09/08 00:20:35;;;;;;;;;;;;;;;;;;5137746;27;19916;-85
2022/09/08 00:23:01;;;;;;;;;;;;;;;;;;5141276;27;19960;-84
2022/09/08 00:25:26;;;;;;;;;;;;;;;;;;5139769;27;19964;-84
2022/09/08 00:27:52;;;;;;;;;;;;;;;;;;5137658;27;19921;-84
2022/09/08 00:30:17;;;;;;;;;;;;;;;;;;5137690;27;20278;-85
2022/09/08 00:32:42;;;;;;;;;;;;;;;;;;5137553;27;19919;-85
2022/09/08 00:35:14;;;;;;;;;;;;;;;;;;5137521;27;19915;-85
2022/09/08 00:37:39;;;;;;;;;;;;;;;;;;5137503;27;19918;-85
2022/09/08 00:40:05;;;;;;;;;;;;;;;;;;5118701;27;19916;-85
2022/09/08 00:42:30;;;;;;;;;;;;;;;;;;5119337;27;19916;-85
2022/09/08 00:44:56;;;;;;;;;;;;;;;;;;5137410;27;20002;-84
2022/09/08 00:47:22;;;;;;;;;;;;;;;;;;5137329;27;19916;-84
2022/09/08 00:49:48;;;;;;;;;;;;;;;;;;5137167;27;19916;-85
2022/09/08 00:52:13;;;;;;;;;;;;;;;;;;5138149;27;19915;-85
2022/09/08 00:54:38;;;;;;;;;;;;;;;;;;5154027;27;19926;-84
2022/09/08 00:57:05;;;;;;;;;;;;;;;;;;5137697;27;19971;-84
2022/09/08 00:59:31;;;;;;;;;;;;;;;;;;5153275;27;19916;-84
2022/09/08 01:01:56;;;;;;;;;;;;;;;;;;5134320;27;19965;-83
2022/09/08 01:04:21;;;;;;;;;;;;;;;;;;5148254;27;19915;-82
2022/09/08 01:12:46;;;;;;;;;;;;;;;;;;5144774;27;19928;-83
2022/09/08 01:15:14;;;;;;;;;;;;;;;;;;5160597;27;19907;-84
2022/09/08 01:17:40;;;;;;;;;;;;;;;;;;5128676;27;20381;-85
2022/09/08 01:20:08;;;;;;;;;;;;;;;;;;5118646;27;20010;-84
2022/09/08 01:22:33;;;;;;;;;;;;;;;;;;5118866;27;19915;-85
2022/09/08 01:25:17;;;;;;;;;;;;;;;;;;5136986;27;19916;-84
2022/09/08 01:27:44;;;;;;;;;;;;;;;;;;5136216;27;19955;-84
2022/09/08 01:30:09;;;;;;;;;;;;;;;;;;5118236;27;19943;-84
2022/09/08 01:32:35;;;;;;;;;;;;;;;;;;5118571;27;19938;-83
2022/09/08 01:35:01;;;;;;;;;;;;;;;;;;5118207;27;19916;-84
2022/09/08 01:37:26;;;;;;;;;;;;;;;;;;5136335;27;19920;-84
2022/09/08 01:39:51;;;;;;;;;;;;;;;;;;5118031;27;19947;-84
2022/09/08 01:42:17;;;;;;;;;;;;;;;;;;5136389;27;19922;-84
2022/09/08 01:44:45;;;;;;;;;;;;;;;;;;5136275;27;19911;-83
2022/09/08 01:47:10;;;;;;;;;;;;;;;;;;5136566;27;20232;-83
2022/09/08 01:49:36;;;;;;;;;;;;;;;;;;5117819;27;19916;-84
2022/09/08 01:52:01;;;;;;;;;;;;;;;;;;5100772;27;19919;-84
2022/09/08 01:54:27;;;;;;;;;;;;;;;;;;5136275;27;19919;-85
2022/09/08 01:56:54;;;;;;;;;;;;;;;;;;5136101;27;19954;-84
2022/09/08 01:59:19;;;;;;;;;;;;;;;;;;5117725;27;19938;-83
2022/09/08 02:01:44;;;;;;;;;;;;;;;;;;5135848;27;20405;-83
2022/09/08 02:04:10;;;;;;;;;;;;;;;;;;5117480;27;19915;-83
2022/09/08 02:06:35;;;;;;;;;;;;;;;;;;5135733;27;19916;-83
2022/09/08 02:09:00;;;;;;;;;;;;;;;;;;5135998;27;19915;-84
2022/09/08 02:11:26;;;;;;;;;;;;;;;;;;5135773;27;20170;-84
2022/09/08 02:13:51;;;;;;;;;;;;;;;;;;5117448;27;20006;-84
2022/09/08 02:16:16;;;;;;;;;;;;;;;;;;5135748;27;19915;-85
2022/09/08 02:18:42;;;;;;;;;;;;;;;;;;5135921;27;19922;-84
2022/09/08 02:21:11;;;;;;;;;;;;;;;;;;5135531;27;19915;-84
2022/09/08 02:23:37;;;;;;;;;;;;;;;;;;5117335;27;19911;-85
2022/09/08 02:26:02;;;;;;;;;;;;;;;;;;5135790;27;19938;-85
2022/09/08 02:28:46;;;;;;;;;;;;;;;;;;5100273;28;19947;-85
2022/09/08 02:31:12;;;;;;;;;;;;;;;;;;5135889;27;19931;-85
2022/09/08 02:33:37;;;;;;;;;;;;;;;;;;5117290;28;19915;-83
2022/09/08 02:36:03;;;;;;;;;;;;;;;;;;5117183;28;19918;-83
2022/09/08 02:38:28;;;;;;;;;;;;;;;;;;5116535;28;19916;-84
2022/09/08 02:40:53;;;;;;;;;;;;;;;;;;5135407;28;20336;-84
2022/09/08 02:43:20;;;;;;;;;;;;;;;;;;5135437;28;20012;-84
2022/09/08 02:45:46;;;;;;;;;;;;;;;;;;5135656;28;19919;-83
2022/09/08 02:48:11;;;;;;;;;;;;;;;;;;5135317;28;19964;-84
2022/09/08 02:50:38;;;;;;;;;;;;;;;;;;5135118;28;19916;-84
2022/09/08 02:53:03;;;;;;;;;;;;;;;;;;5135598;28;19958;-84
2022/09/08 02:55:28;;;;;;;;;;;;;;;;;;5116944;28;20003;-84
2022/09/08 02:57:54;;;;;;;;;;;;;;;;;;5135269;28;20453;-86
2022/09/08 03:00:19;;;;;;;;;;;;;;;;;;5135888;28;20245;-85
2022/09/08 03:02:46;;;;;;;;;;;;;;;;;;5117172;28;20320;-84
2022/09/08 03:05:11;;;;;;;;;;;;;;;;;;5099959;28;20001;-85
2022/09/08 03:07:37;;;;;;;;;;;;;;;;;;5116921;28;19942;-85
2022/09/08 03:10:04;;;;;;;;;;;;;;;;;;5135259;28;19916;-85
2022/09/08 03:12:30;;;;;;;;;;;;;;;;;;5117511;28;19911;-85
2022/09/08 03:14:55;;;;;;;;;;;;;;;;;;5116991;28;19915;-85
2022/09/08 03:17:20;;;;;;;;;;;;;;;;;;5135307;28;19938;-84
2022/09/08 03:19:46;;;;;;;;;;;;;;;;;;5134708;28;20007;-85
2022/09/08 03:22:11;;;;;;;;;;;;;;;;;;5116805;28;19922;-85
2022/09/08 03:24:37;;;;;;;;;;;;;;;;;;5135135;28;19916;-85
2022/09/08 03:27:03;;;;;;;;;;;;;;;;;;5117030;28;19960;-84
2022/09/08 03:29:28;;;;;;;;;;;;;;;;;;5135113;28;20325;-85
2022/09/08 03:31:54;;;;;;;;;;;;;;;;;;5120410;28;20002;-85
2022/09/08 03:34:19;;;;;;;;;;;;;;;;;;5135461;28;19923;-85
2022/09/08 03:36:44;;;;;;;;;;;;;;;;;;5135270;28;19922;-84
2022/09/08 03:39:10;;;;;;;;;;;;;;;;;;5136605;28;19915;-85
2022/09/08 03:41:35;;;;;;;;;;;;;;;;;;5138778;28;19916;-83
2022/09/08 03:44:01;;;;;;;;;;;;;;;;;;5136505;28;19915;-85
2022/09/08 03:46:26;;;;;;;;;;;;;;;;;;5116567;28;19957;-84
2022/09/08 03:48:51;;;;;;;;;;;;;;;;;;5135403;28;19923;-84
2022/09/08 03:51:18;;;;;;;;;;;;;;;;;;5120962;27;19934;-85
2022/09/08 03:53:44;;;;;;;;;;;;;;;;;;5140656;27;19986;-86
2022/09/08 03:56:09;;;;;;;;;;;;;;;;;;5142306;27;19971;-86
2022/09/08 03:58:35;;;;;;;;;;;;;;;;;;5125427;27;20014;-83
2022/09/08 04:01:01;;;;;;;;;;;;;;;;;;5140581;27;20272;-84
2022/09/08 04:03:27;;;;;;;;;;;;;;;;;;5142783;27;20307;-84
2022/09/08 04:05:52;;;;;;;;;;;;;;;;;;5141463;27;19920;-85
2022/09/08 04:08:17;;;;;;;;;;;;;;;;;;5150909;27;19921;-85
2022/09/08 04:10:43;;;;;;;;;;;;;;;;;;5143769;27;19970;-85
2022/09/08 04:13:08;;;;;;;;;;;;;;;;;;5147346;27;20376;-87
2022/09/08 04:15:33;;;;;;;;;;;;;;;;;;5148685;27;19939;-86
2022/09/08 04:17:59;;;;;;;;;;;;;;;;;;5143869;27;20552;-86
2022/09/08 04:20:24;;;;;;;;;;;;;;;;;;5142253;27;19999;-85
2022/09/08 04:22:49;;;;;;;;;;;;;;;;;;5126040;27;19979;-85
2022/09/08 04:25:15;;;;;;;;;;;;;;;;;;5144241;27;19941;-86
2022/09/08 04:27:41;;;;;;;;;;;;;;;;;;5145048;27;19916;-84
2022/09/08 04:30:07;;;;;;;;;;;;;;;;;;5138081;27;19954;-86
2022/09/08 04:32:34;;;;;;;;;;;;;;;;;;5137584;27;20237;-86
2022/09/08 04:34:59;;;;;;;;;;;;;;;;;;5138227;27;20569;-86
2022/09/08 04:37:24;;;;;;;;;;;;;;;;;;5137922;27;20330;-85
2022/09/08 04:39:50;;;;;;;;;;;;;;;;;;5137581;27;19915;-85
2022/09/08 04:42:15;;;;;;;;;;;;;;;;;;5137583;27;19915;-84
2022/09/08 04:44:41;;;;;;;;;;;;;;;;;;5119136;27;19923;-85
2022/09/08 04:47:06;;;;;;;;;;;;;;;;;;5137308;27;19922;-84
2022/09/08 04:49:31;;;;;;;;;;;;;;;;;;5137465;27;19915;-86
2022/09/08 04:51:57;;;;;;;;;;;;;;;;;;5137593;27;20334;-85
2022/09/08 04:54:24;;;;;;;;;;;;;;;;;;5137543;27;19922;-84
2022/09/08 04:56:49;;;;;;;;;;;;;;;;;;5137291;27;20273;-84
2022/09/08 04:59:15;;;;;;;;;;;;;;;;;;5137068;27;19916;-84
2022/09/08 05:01:40;;;;;;;;;;;;;;;;;;5117490;27;19930;-84
2022/09/08 05:04:06;;;;;;;;;;;;;;;;;;5137084;27;20315;-85
2022/09/08 05:06:32;;;;;;;;;;;;;;;;;;5137162;27;19922;-85
2022/09/08 05:08:59;;;;;;;;;;;;;;;;;;5118033;27;20201;-86
2022/09/08 05:11:25;;;;;;;;;;;;;;;;;;5136836;27;19922;-84
2022/09/08 05:13:50;;;;;;;;;;;;;;;;;;5118291;27;20349;-85
2022/09/08 05:16:19;;;;;;;;;;;;;;;;;;5117918;27;20423;-85
2022/09/08 05:18:48;;;;;;;;;;;;;;;;;;5118060;27;19915;-85
2022/09/08 05:21:14;;;;;;;;;;;;;;;;;;5118276;27;19922;-84
2022/09/08 05:23:39;;;;;;;;;;;;;;;;;;5136416;27;19916;-86
2022/09/08 05:26:08;;;;;;;;;;;;;;;;;;5136345;27;19916;-85
2022/09/08 05:28:34;;;;;;;;;;;;;;;;;;5117893;27;19923;-85
2022/09/08 05:31:00;;;;;;;;;;;;;;;;;;5136219;27;19919;-85
2022/09/08 05:33:25;;;;;;;;;;;;;;;;;;5101065;27;20007;-85
2022/09/08 05:35:50;;;;;;;;;;;;;;;;;;5136463;27;19980;-84
2022/09/08 05:38:16;;;;;;;;;;;;;;;;;;5136002;27;20364;-84
2022/09/08 05:40:41;;;;;;;;;;;;;;;;;;5117911;27;19922;-84
2022/09/08 05:43:07;;;;;;;;;;;;;;;;;;5136271;27;20025;-85
2022/09/08 05:45:32;;;;;;;;;;;;;;;;;;5136334;27;19916;-85
2022/09/08 05:47:57;;;;;;;;;;;;;;;;;;5118166;27;19955;-86
2022/09/08 05:50:23;;;;;;;;;;;;;;;;;;5117885;27;19963;-80
2022/09/08 05:52:48;;;;;;;;;;;;;;;;;;5137472;27;19972;-78
2022/09/08 05:55:14;;;;;;;;;;;;;;;;;;5133613;27;19915;-81
2022/09/08 05:57:39;;;;;;;;;;;;;;;;;;5135639;27;19988;-82
2022/09/08 06:00:05;;;;;;;;;;;;;;;;;;5136767;27;19974;-82
2022/09/08 06:02:30;;;;;;;;;;;;;;;;;;5138515;27;19924;-80
2022/09/08 06:04:56;;;;;;;;;;;;;;;;;;5136889;27;19924;-81
2022/09/08 06:07:22;;;;;;;;;;;;;;;;;;5135924;27;19964;-82
2022/09/08 06:09:47;;;;;;;;;;;;;;;;;;5135650;27;19919;-82
2022/09/08 06:12:12;;;;;;;;;;;;;;;;;;5135587;27;19916;-82
2022/09/08 06:14:38;;;;;;;;;;;;;;;;;;5135685;27;19916;-82
2022/09/08 06:17:03;;;;;;;;;;;;;;;;;;5135750;27;19958;-82
2022/09/08 06:19:29;;;;;;;;;;;;;;;;;;5135785;27;19915;-83
2022/09/08 06:21:54;;;;;;;;;;;;;;;;;;5136611;27;19923;-87
2022/09/08 06:24:19;;;;;;;;;;;;;;;;;;5103158;27;19918;-79
2022/09/08 06:27:00;;;;;;;;;;;;;;;;;;5135471;27;19930;-80
2022/09/08 06:29:40;;;;;;;;;;;;;;;;;;5135312;27;19915;-80
2022/09/08 06:32:11;;;;;;;;;;;;;;;;;;5135701;27;19912;-80
2022/09/08 06:34:41;;;;;;;;;;;;;;;;;;5135131;27;19915;-82
2022/09/08 06:37:07;;;;;;;;;;;;;;;;;;5117316;28;19926;-81
2022/09/08 06:39:34;;;;;;;;;;;;;;;;;;5117120;28;19916;-81
2022/09/08 06:42:09;;;;;;;;;;;;;;;;;;5135582;28;19915;-80
2022/09/08 06:44:35;;;;;;;;;;;;;;;;;;5117113;28;19916;-81
2022/09/08 06:47:01;;;;;;;;;;;;;;;;;;5117100;28;19915;-78
2022/09/08 06:49:26;;;;;;;;;;;;;;;;;;5135287;28;19964;-82
2022/09/08 06:51:59;;;;;;;;;;;;;;;;;;5135242;28;20283;-80
2022/09/08 06:54:28;;;;;;;;;;;;;;;;;;5135429;28;19922;-81
2022/09/08 06:56:57;;;;;;;;;;;;;;;;;;5134808;28;19919;-82
2022/09/08 06:59:34;;;;;;;;;;;;;;;;;;5135412;28;19963;-81
2022/09/08 07:01:59;;;;;;;;;;;;;;;;;;5135200;28;19941;-79
2022/09/08 07:04:34;;;;;;;;;;;;;;;;;;5135575;28;20389;-79
2022/09/08 07:07:17;;;;;;;;;;;;;;;;;;5135063;28;19958;-78
2022/09/08 07:10:06;;;;;;;;;;;;;;;;;;5134906;28;19964;-78
2022/09/08 07:12:38;;;;;;;;;;;;;;;;;;5120988;28;19916;-79
2022/09/08 07:15:06;;;;;;;;;;;;;;;;;;5135116;28;19930;-77
2022/09/08 07:17:31;;;;;;;;;;;;;;;;;;5134840;28;19923;-79
2022/09/08 07:19:57;;;;;;;;;;;;;;;;;;5134871;28;20221;-79
2022/09/08 07:22:28;;;;;;;;;;;;;;;;;;5134929;28;19916;-79
2022/09/08 07:24:56;;;;;;;;;;;;;;;;;;5135417;27;19915;-79
2022/09/08 07:27:21;;;;;;;;;;;;;;;;;;5120547;27;20340;-78
2022/09/08 07:29:47;;;;;;;;;;;;;;;;;;5138807;27;19918;-78
2022/09/08 07:32:14;;;;;;;;;;;;;;;;;;5139016;27;20299;-79
2022/09/08 07:34:41;;;;;;;;;;;;;;;;;;5138891;27;20344;-79
2022/09/08 07:37:11;;;;;;;;;;;;;;;;;;5120124;27;19966;-79
2022/09/08 07:39:38;;;;;;;;;;;;;;;;;;5120240;27;19916;-78
2022/09/08 07:42:04;;;;;;;;;;;;;;;;;;5138602;27;20355;-79
2022/09/08 07:44:29;;;;;;;;;;;;;;;;;;5120208;27;19916;-79
2022/09/08 07:46:54;;;;;;;;;;;;;;;;;;5138582;27;19923;-78
2022/09/08 07:49:33;;;;;;;;;;;;;;;;;;5138378;27;19915;-79
2022/09/08 07:51:58;;;;;;;;;;;;;;;;;;5120098;27;19915;-79
2022/09/08 07:54:23;;;;;;;;;;;;;;;;;;5137937;27;19915;-78
2022/09/08 07:56:53;;;;;;;;;;;;;;;;;;5138515;27;19915;-79
2022/09/08 07:59:18;;;;;;;;;;;;;;;;;;5138436;27;19916;-79
2022/09/08 08:01:50;;;;;;;;;;;;;;;;;;5139562;27;20222;-77
2022/09/08 08:04:21;;;;;;;;;;;;;;;;;;5138178;27;19915;-78
2022/09/08 08:06:49;;;;;;;;;;;;;;;;;;5141204;27;19922;-79
2022/09/08 08:09:27;;;;;;;;;;;;;;;;;;5141121;27;20265;-79
2022/09/08 08:11:52;;;;;;;;;;;;;;;;;;5137968;27;19916;-78
2022/09/08 08:14:26;;;;;;;;;;;;;;;;;;5138160;27;19922;-81
2022/09/08 08:17:11;;;;;;;;;;;;;;;;;;5136958;27;19916;-81
2022/09/08 08:19:36;;;;;;;;;;;;;;;;;;5137351;27;19929;-82
2022/09/08 08:22:14;;;;;;;;;;;;;;;;;;5137873;27;19916;-79
2022/09/08 08:24:39;;;;;;;;;;;;;;;;;;5138258;27;20367;-82
2022/09/08 08:27:16;;;;;;;;;;;;;;;;;;5137714;27;19915;-81
2022/09/08 08:29:48;;;;;;;;;;;;;;;;;;5137265;27;19939;-82
2022/09/08 08:32:18;;;;;;;;;;;;;;;;;;5137802;27;19915;-82
2022/09/08 08:34:53;;;;;;;;;;;;;;;;;;5137908;27;19923;-84
2022/09/08 08:37:20;;;;;;;;;;;;;;;;;;5136111;27;19961;-79
2022/09/08 08:39:45;;;;;;;;;;;;;;;;;;5137164;27;20014;-81
2022/09/08 08:42:17;;;;;;;;;;;;;;;;;;5118738;27;20337;-79
2022/09/08 08:44:55;;;;;;;;;;;;;;;;;;5137089;27;19915;-81
2022/09/08 08:47:43;;;;;;;;;;;;;;;;;;5119017;27;19920;-80
2022/09/08 08:50:17;;;;;;;;;;;;;;;;;;5136995;27;20320;-78
2022/09/08 08:53:01;;;;;;;;;;;;;;;;;;5136979;27;19972;-79
2022/09/08 08:55:32;;;;;;;;;;;;;;;;;;5137281;27;19916;-80
2022/09/08 08:58:16;;;;;;;;;;;;;;;;;;5136854;27;19915;-79
2022/09/08 09:00:44;;;;;;;;;;;;;;;;;;5136829;27;19965;-79
2022/09/08 09:03:12;;;;;;;;;;;;;;;;;;5136633;27;19927;-78
2022/09/08 09:05:47;;;;;;;;;;;;;;;;;;5136958;27;20309;-79
2022/09/08 09:08:30;;;;;;;;;;;;;;;;;;5136785;27;19915;-78
2022/09/08 09:11:01;;;;;;;;;;;;;;;;;;5136784;27;20332;-78
2022/09/08 09:13:35;;;;;;;;;;;;;;;;;;5118227;27;20328;-79
2022/09/08 09:16:01;;;;;;;;;;;;;;;;;;5136671;27;19959;-78
2022/09/08 09:18:41;;;;;;;;;;;;;;;;;;5136405;27;19956;-79
2022/09/08 09:21:12;;;;;;;;;;;;;;;;;;5118094;27;19941;-79
2022/09/08 09:23:40;;;;;;;;;;;;;;;;;;5137171;27;19916;-81
2022/09/08 09:26:15;;;;;;;;;;;;;;;;;;5136739;27;19976;-79
2022/09/08 09:28:47;;;;;;;;;;;;;;;;;;5136447;27;19919;-78
2022/09/08 09:31:12;;;;;;;;;;;;;;;;;;5118124;27;19912;-76
2022/09/08 09:34:04;;;;;;;;;;;;;;;;;;5136591;27;19938;-80
2022/09/08 09:36:48;;;;;;;;;;;;;;;;;;5133345;27;19939;-84
2022/09/08 09:39:14;;;;;;;;;;;;;;;;;;5140861;27;19916;-81
2022/09/08 09:41:39;;;;;;;;;;;;;;;;;;5137616;27;19937;-83
2022/09/08 09:44:05;;;;;;;;;;;;;;;;;;5137753;27;19929;-79
2022/09/08 09:46:30;;;;;;;;;;;;;;;;;;5137089;27;19916;-82
2022/09/08 09:49:05;;;;;;;;;;;;;;;;;;5135527;27;19945;-81
2022/09/08 09:52:09;;;;;;;;;;;;;;;;;;5116932;27;19915;-83
2022/09/08 09:54:40;;;;;;;;;;;;;;;;;;5033776;28;19944;-82
2022/09/08 09:57:14;;;;;;;;;;;;;;;;;;5035631;28;19917;-80
2022/09/08 09:59:58;;;;;;;;;;;;;;;;;;5073661;27;19963;-81
2022/09/08 10:02:42;;;;;;;;;;;;;;;;;;5136038;27;19919;-81
2022/09/08 10:05:12;;;;;;;;;;;;;;;;;;5117905;27;19916;-83
2022/09/08 10:07:47;;;;;;;;;;;;;;;;;;5136721;27;19916;-84
2022/09/08 10:10:31;;;;;;;;;;;;;;;;;;5136828;27;19950;-81
2022/09/08 10:12:59;;;;;;;;;;;;;;;;;;5135725;27;19916;-80
2022/09/08 10:15:45;;;;;;;;;;;;;;;;;;5136257;27;19972;-81
2022/09/08 10:18:24;;;;;;;;;;;;;;;;;;5134815;27;20057;-82
2022/09/08 10:21:03;;;;;;;;;;;;;;;;;;5116936;27;20003;-80
2022/09/08 10:23:29;;;;;;;;;;;;;;;;;;5117070;28;19955;-78
2022/09/08 10:26:10;;;;;;;;;;;;;;;;;;5137980;27;19915;-86
2022/09/08 10:28:51;;;;;;;;;;;;;;;;;;5139299;27;19915;-88
2022/09/08 10:31:20;;;;;;;;;;;;;;;;;;5100748;27;19916;-84
2022/09/08 10:34:05;;;;;;;;;;;;;;;;;;5117073;27;19964;-84
2022/09/08 10:36:51;;;;;;;;;;;;;;;;;;5136618;27;19922;-76
2022/09/08 10:39:31;;;;;;;;;;;;;;;;;;5134590;28;19927;-75
2022/09/08 10:42:09;;;;;;;;;;;;;;;;;;5117137;28;19972;-76
2022/09/08 10:44:54;;;;;;;;;;;;;;;;;;5135570;28;20340;-76
2022/09/08 10:47:25;;;;;;;;;;;;;;;;;;5134533;28;19922;-76
2022/09/08 10:50:10;;;;;;;;;;;;;;;;;;5116737;28;19964;-75
2022/09/08 10:52:35;;;;;;;;;;;;;;;;;;5135368;28;20052;-75
2022/09/08 10:55:03;;;;;;;;;;;;;;;;;;5135046;28;19976;-75
2022/09/08 10:57:47;;;;;;;;;;;;;;;;;;5116733;28;20003;-75
2022/09/08 11:00:18;;;;;;;;;;;;;;;;;;5136188;27;19919;-76
2022/09/08 11:02:58;;;;;;;;;;;;;;;;;;5120912;27;19919;-76
2022/09/08 11:05:31;;;;;;;;;;;;;;;;;;5121189;27;20336;-76
2022/09/08 11:08:15;;;;;;;;;;;;;;;;;;5103771;27;19916;-76
2022/09/08 11:10:40;;;;;;;;;;;;;;;;;;5121361;27;19923;-75
2022/09/08 11:13:24;;;;;;;;;;;;;;;;;;5139407;27;20237;-76
2022/09/08 11:15:52;;;;;;;;;;;;;;;;;;5139345;27;19916;-76
2022/09/08 11:18:36;;;;;;;;;;;;;;;;;;5138725;27;20263;-77
2022/09/08 11:21:03;;;;;;;;;;;;;;;;;;5120754;27;19915;-77
2022/09/08 11:23:28;;;;;;;;;;;;;;;;;;5138944;27;20360;-76
2022/09/08 11:25:53;;;;;;;;;;;;;;;;;;5139134;27;20015;-76
2022/09/08 11:28:28;;;;;;;;;;;;;;;;;;5139391;27;19915;-76
2022/09/08 11:30:53;;;;;;;;;;;;;;;;;;5138719;27;20009;-76
2022/09/08 11:33:21;;;;;;;;;;;;;;;;;;5138526;27;20007;-77
2022/09/08 11:35:47;;;;;;;;;;;;;;;;;;5120486;27;19923;-77
2022/09/08 11:38:31;;;;;;;;;;;;;;;;;;5138861;27;20325;-77
2022/09/08 11:41:14;;;;;;;;;;;;;;;;;;5120239;27;20283;-76
2022/09/08 11:43:42;;;;;;;;;;;;;;;;;;5138597;27;19915;-75
2022/09/08 11:46:20;;;;;;;;;;;;;;;;;;5138340;27;19922;-76
2022/09/08 11:49:09;;;;;;;;;;;;;;;;;;5138459;27;20230;-76
2022/09/08 11:51:44;;;;;;;;;;;;;;;;;;5120174;27;20006;-76
2022/09/08 11:54:28;;;;;;;;;;;;;;;;;;5120090;27;19916;-77
2022/09/08 11:56:59;;;;;;;;;;;;;;;;;;5138306;27;20024;-77
2022/09/08 11:59:24;;;;;;;;;;;;;;;;;;5143952;27;19916;-77
2022/09/08 12:02:08;;;;;;;;;;;;;;;;;;5155663;27;20009;-76
2022/09/08 12:04:42;;;;;;;;;;;;;;;;;;5154765;27;19951;-77
2022/09/08 12:07:08;;;;;;;;;;;;;;;;;;5155671;27;19915;-76
2022/09/08 12:09:36;;;;;;;;;;;;;;;;;;5156924;27;20565;-76
2022/09/08 12:12:10;;;;;;;;;;;;;;;;;;5140786;27;19915;-76
2022/09/08 12:14:45;;;;;;;;;;;;;;;;;;5137955;27;19915;-76
2022/09/08 12:17:10;;;;;;;;;;;;;;;;;;5138180;27;19919;-76
2022/09/08 12:19:51;;;;;;;;;;;;;;;;;;5137852;27;19964;-77
2022/09/08 12:22:16;;;;;;;;;;;;;;;;;;5138080;27;19927;-75
2022/09/08 12:24:45;;;;;;;;;;;;;;;;;;5137753;27;19912;-75
2022/09/08 12:27:23;;;;;;;;;;;;;;;;;;5119456;27;20424;-74
2022/09/08 12:29:54;;;;;;;;;;;;;;;;;;5137518;27;19915;-75
2022/09/08 12:32:23;;;;;;;;;;;;;;;;;;5119603;27;20303;-75
2022/09/08 12:35:00;;;;;;;;;;;;;;;;;;5137519;27;19915;-75
2022/09/08 12:37:44;;;;;;;;;;;;;;;;;;5119633;27;20339;-75
2022/09/08 12:40:14;;;;;;;;;;;;;;;;;;5138401;27;19965;-82
2022/09/08 12:42:42;;;;;;;;;;;;;;;;;;5122863;27;20254;-86
2022/09/08 12:45:23;;;;;;;;;;;;;;;;;;5137731;27;19923;-83
2022/09/08 12:47:59;;;;;;;;;;;;;;;;;;5137164;27;19929;-83
2022/09/08 12:50:33;;;;;;;;;;;;;;;;;;5118624;27;19938;-82
2022/09/08 12:53:17;;;;;;;;;;;;;;;;;;5118856;27;20260;-86
2022/09/08 12:55:55;;;;;;;;;;;;;;;;;;5136902;27;19955;-83
2022/09/08 12:58:23;;;;;;;;;;;;;;;;;;5136574;27;19964;-79
2022/09/08 13:00:56;;;;;;;;;;;;;;;;;;5101336;27;19916;-81
2022/09/08 13:03:28;;;;;;;;;;;;;;;;;;5118567;27;19922;-82
2022/09/08 13:05:59;;;;;;;;;;;;;;;;;;5118722;27;19923;-82
2022/09/08 13:08:28;;;;;;;;;;;;;;;;;;5136743;27;19915;-82
2022/09/08 13:11:03;;;;;;;;;;;;;;;;;;5118234;27;19915;-82
2022/09/08 13:13:32;;;;;;;;;;;;;;;;;;5117807;27;19916;-82
2022/09/08 13:16:00;;;;;;;;;;;;;;;;;;5117707;27;19916;-82
2022/09/08 13:18:41;;;;;;;;;;;;;;;;;;5135255;27;20300;-83
2022/09/08 13:21:12;;;;;;;;;;;;;;;;;;5135600;27;19958;-74
2022/09/08 13:23:42;;;;;;;;;;;;;;;;;;5117414;27;20333;-74
2022/09/08 13:26:34;;;;;;;;;;;;;;;;;;5117949;27;19929;-74
2022/09/08 13:29:08;;;;;;;;;;;;;;;;;;5130537;27;19915;-75
2022/09/08 13:31:40;;;;;;;;;;;;;;;;;;5136300;27;19915;-75
2022/09/08 13:34:18;;;;;;;;;;;;;;;;;;5135025;27;20009;-75
2022/09/08 13:36:43;;;;;;;;;;;;;;;;;;5116147;27;19916;-74
2022/09/08 13:39:14;;;;;;;;;;;;;;;;;;5134444;27;19964;-74
2022/09/08 13:41:46;;;;;;;;;;;;;;;;;;5134192;27;19915;-74
2022/09/08 13:44:20;;;;;;;;;;;;;;;;;;5134500;27;19915;-74
2022/09/08 13:46:45;;;;;;;;;;;;;;;;;;5134334;27;19964;-74
2022/09/08 13:49:21;;;;;;;;;;;;;;;;;;5135327;27;20310;-74
2022/09/08 13:51:50;;;;;;;;;;;;;;;;;;5117528;27;19915;-75
2022/09/08 13:54:18;;;;;;;;;;;;;;;;;;5135879;27;19972;-75
2022/09/08 13:56:59;;;;;;;;;;;;;;;;;;5135528;27;19915;-74
2022/09/08 13:59:44;;;;;;;;;;;;;;;;;;5135808;27;19962;-75
2022/09/08 14:02:40;;;;;;;;;;;;;;;;;;5117452;27;19942;-77
2022/09/08 14:05:18;;;;;;;;;;;;;;;;;;5135629;27;19922;-74
2022/09/08 14:07:45;;;;;;;;;;;;;;;;;;5135578;27;19958;-76
2022/09/08 14:10:12;;;;;;;;;;;;;;;;;;5117225;27;19943;-75
2022/09/08 14:12:37;;;;;;;;;;;;;;;;;;5117225;27;19923;-74
2022/09/08 14:15:11;;;;;;;;;;;;;;;;;;5117115;27;19912;-74
2022/09/08 14:17:43;;;;;;;;;;;;;;;;;;5117116;27;19922;-74
2022/09/08 14:20:26;;;;;;;;;;;;;;;;;;5135387;27;19915;-75
2022/09/08 14:23:00;;;;;;;;;;;;;;;;;;5135409;27;19915;-74
2022/09/08 14:25:31;;;;;;;;;;;;;;;;;;5117242;27;19918;-74
2022/09/08 14:28:06;;;;;;;;;;;;;;;;;;5135661;27;19916;-74
2022/09/08 14:30:38;;;;;;;;;;;;;;;;;;5135291;27;19912;-74
2022/09/08 14:33:18;;;;;;;;;;;;;;;;;;5135966;27;20034;-74
2022/09/08 14:35:44;;;;;;;;;;;;;;;;;;5135458;27;19960;-74
2022/09/08 14:38:10;;;;;;;;;;;;;;;;;;5135489;27;19916;-75
2022/09/08 14:40:43;;;;;;;;;;;;;;;;;;5134749;27;20338;-77
2022/09/08 14:43:11;;;;;;;;;;;;;;;;;;5099859;28;19915;-77
2022/09/08 14:45:49;;;;;;;;;;;;;;;;;;5135262;28;20248;-78
2022/09/08 14:48:19;;;;;;;;;;;;;;;;;;5135562;28;20255;-77
2022/09/08 14:51:01;;;;;;;;;;;;;;;;;;5116835;28;19953;-74
2022/09/08 14:53:46;;;;;;;;;;;;;;;;;;5135180;28;19947;-73
2022/09/08 14:56:15;;;;;;;;;;;;;;;;;;5134256;28;19915;-76
2022/09/08 14:58:58;;;;;;;;;;;;;;;;;;5135074;28;19936;-77
2022/09/08 15:01:34;;;;;;;;;;;;;;;;;;5135012;28;19920;-76
2022/09/08 15:04:01;;;;;;;;;;;;;;;;;;5116761;28;19957;-75
2022/09/08 15:06:56;;;;;;;;;;;;;;;;;;5116632;28;19952;-74
2022/09/08 15:09:30;;;;;;;;;;;;;;;;;;5112485;28;19972;-74
2022/09/08 15:11:56;;;;;;;;;;;;;;;;;;5134958;28;19958;-74
2022/09/08 15:14:26;;;;;;;;;;;;;;;;;;5116646;28;20344;-74
2022/09/08 15:16:52;;;;;;;;;;;;;;;;;;5116702;28;19919;-74
2022/09/08 15:19:17;;;;;;;;;;;;;;;;;;5135090;28;20006;-74
2022/09/08 15:21:48;;;;;;;;;;;;;;;;;;5134946;28;19926;-74
2022/09/08 15:24:34;;;;;;;;;;;;;;;;;;5116520;28;19916;-74
2022/09/08 15:27:02;;;;;;;;;;;;;;;;;;5116731;28;19911;-74
2022/09/08 15:29:56;;;;;;;;;;;;;;;;;;5116708;28;20022;-74
2022/09/08 15:32:28;;;;;;;;;;;;;;;;;;5131430;28;19931;-74
2022/09/08 15:35:16;;;;;;;;;;;;;;;;;;5134864;28;19922;-76
2022/09/08 15:37:47;;;;;;;;;;;;;;;;;;5086472;28;19968;-74
2022/09/08 15:40:18;;;;;;;;;;;;;;;;;;5116235;28;20011;-74
2022/09/08 15:42:48;;;;;;;;;;;;;;;;;;5099500;28;19916;-73
2022/09/08 15:45:28;;;;;;;;;;;;;;;;;;5116368;27;20293;-74
2022/09/08 15:48:03;;;;;;;;;;;;;;;;;;5119873;27;19920;-74
2022/09/08 15:50:33;;;;;;;;;;;;;;;;;;5138368;27;19916;-75
2022/09/08 15:53:17;;;;;;;;;;;;;;;;;;5137970;27;20284;-74
2022/09/08 15:56:01;;;;;;;;;;;;;;;;;;5138226;27;20355;-74
2022/09/08 15:58:34;;;;;;;;;;;;;;;;;;5138043;27;19919;-74
2022/09/08 16:01:02;;;;;;;;;;;;;;;;;;5119530;27;19927;-74
2022/09/08 16:03:36;;;;;;;;;;;;;;;;;;5137912;27;19915;-75
2022/09/08 16:06:03;;;;;;;;;;;;;;;;;;5119653;27;19916;-77
2022/09/08 16:08:35;;;;;;;;;;;;;;;;;;5119474;27;20065;-75
2022/09/08 16:11:16;;;;;;;;;;;;;;;;;;5138232;27;19916;-74
2022/09/08 16:13:43;;;;;;;;;;;;;;;;;;5137702;27;19915;-74
2022/09/08 16:16:24;;;;;;;;;;;;;;;;;;5137747;27;19915;-75
2022/09/08 16:18:54;;;;;;;;;;;;;;;;;;5119376;27;19915;-74
2022/09/08 16:21:24;;;;;;;;;;;;;;;;;;5119640;27;19923;-75
2022/09/08 16:23:59;;;;;;;;;;;;;;;;;;5137618;27;20002;-74
2022/09/08 16:26:24;;;;;;;;;;;;;;;;;;5137693;27;19965;-74
2022/09/08 16:28:59;;;;;;;;;;;;;;;;;;5137494;27;19912;-74
2022/09/08 16:31:25;;;;;;;;;;;;;;;;;;5119861;27;19922;-74
2022/09/08 16:34:08;;;;;;;;;;;;;;;;;;5119236;27;19941;-74
2022/09/08 16:36:34;;;;;;;;;;;;;;;;;;5137268;27;19915;-78
2022/09/08 16:39:03;;;;;;;;;;;;;;;;;;5119036;27;19923;-77
2022/09/08 16:41:47;;;;;;;;;;;;;;;;;;5137386;27;19915;-74
2022/09/08 16:44:12;;;;;;;;;;;;;;;;;;5137266;27;19922;-75
2022/09/08 16:46:38;;;;;;;;;;;;;;;;;;5137145;27;19915;-74
2022/09/08 16:49:22;;;;;;;;;;;;;;;;;;5101992;27;19912;-74
2022/09/08 16:51:47;;;;;;;;;;;;;;;;;;5136942;27;19915;-78
2022/09/08 16:54:19;;;;;;;;;;;;;;;;;;5137087;27;20328;-77
2022/09/08 16:56:44;;;;;;;;;;;;;;;;;;5118892;27;19945;-75
2022/09/08 16:59:12;;;;;;;;;;;;;;;;;;5135963;27;20329;-73
2022/09/08 17:01:38;;;;;;;;;;;;;;;;;;5136760;27;20254;-74
2022/09/08 17:04:30;;;;;;;;;;;;;;;;;;5118565;27;19922;-74
2022/09/08 17:07:03;;;;;;;;;;;;;;;;;;5097180;27;19918;-78
2022/09/08 17:09:28;;;;;;;;;;;;;;;;;;5136875;27;20006;-77
2022/09/08 17:12:01;;;;;;;;;;;;;;;;;;5137350;27;19951;-77
2022/09/08 17:14:26;;;;;;;;;;;;;;;;;;5118515;27;19915;-78